Terminal Aerodrome Forecast
Issued by NWS Bismarck, ND

Home | Current Version | Previous Version | Text Only | Print | Product List | Glossary On
Versions: 1 2 3 4 5 6 7 8 9 10 11 12 13 14 15 16 17 18 19
000
FTUS43 KBIS 190526
TAFBIS
TAF
KBIS 190526Z 1906/2006 VRB03KT P6SM SKC
     FM191100 VRB03KT P6SM SKC WS020/22030KT
     FM191400 18010KT P6SM FEW250
     FM192000 24015KT P6SM FEW100 FEW250
     FM200000 31009KT P6SM FEW150 BKN200
     FM200500 35008KT P6SM FEW150 SCT200=

USA.gov is the U.S. government's official web portal to all federal, state and local government web resources and services.